Time;durP1;ratioP1;P1;durP2;ratioP2;P2;SDS_P1;SDS_P2;PMS_P1;PMS_P2;Temp;Humidity;BMP_temperature;BMP_pressure;BME280_temperature;BME280_humidity;BME280_pressure;Samples;Min_cycle;Max_cycle;Signal;HPM_P1;HPM_P2
2022/06/07 00:00:51;;;;;;;4.22;1.88;;;;;;;;;;5093962;28;20159;-71
2022/06/07 00:03:17;;;;;;;2.78;1.75;;;;;;;;;;5093689;28;20136;-71
2022/06/07 00:05:44;;;;;;;4.45;1.90;;;;;;;;;;5093904;28;20101;-71
2022/06/07 00:08:12;;;;;;;4.43;1.80;;;;;;;;;;5092965;28;20044;-71
2022/06/07 00:10:38;;;;;;;2.58;1.58;;;;;;;;;;5093946;28;20066;-71
2022/06/07 00:13:05;;;;;;;2.70;1.90;;;;;;;;;;5094011;28;20079;-71
2022/06/07 00:15:32;;;;;;;1.87;1.73;;;;;;;;;;5092311;28;20090;-71
2022/06/07 00:17:58;;;;;;;4.03;2.33;;;;;;;;;;5093907;28;20083;-71
2022/06/07 00:20:25;;;;;;;4.75;1.83;;;;;;;;;;5093506;28;20071;-71
2022/06/07 00:22:51;;;;;;;2.22;1.50;;;;;;;;;;5093775;28;20086;-71
2022/06/07 00:25:18;;;;;;;1.73;1.60;;;;;;;;;;5093360;28;20079;-71
2022/06/07 00:27:44;;;;;;;2.75;1.75;;;;;;;;;;5093378;28;20079;-71
2022/06/07 00:30:11;;;;;;;8.85;1.77;;;;;;;;;;5093389;28;20080;-71
2022/06/07 00:32:39;;;;;;;3.87;2.10;;;;;;;;;;5093605;28;20084;-71
2022/06/07 00:35:06;;;;;;;4.28;2.10;;;;;;;;;;5093289;28;20308;-71
2022/06/07 00:37:32;;;;;;;3.38;1.60;;;;;;;;;;5093340;28;20056;-71
2022/06/07 00:39:58;;;;;;;2.50;1.50;;;;;;;;;;5093107;28;20101;-71
2022/06/07 00:42:25;;;;;;;2.58;1.80;;;;;;;;;;5093398;28;20040;-71
2022/06/07 00:44:51;;;;;;;2.15;1.42;;;;;;;;;;5091763;28;20075;-71
2022/06/07 00:47:20;;;;;;;2.70;1.60;;;;;;;;;;5093160;28;20080;-71
2022/06/07 00:49:51;;;;;;;5.05;1.52;;;;;;;;;;5092843;28;20080;-71
2022/06/07 00:52:18;;;;;;;2.13;1.77;;;;;;;;;;5093234;28;20083;-71
2022/06/07 00:54:45;;;;;;;;;;;;;;;;;;5093485;28;20083;-71
2022/06/07 00:57:11;;;;;;;3.78;1.80;;;;;;;;;;5092835;28;19927;-71
2022/06/07 00:59:38;;;;;;;2.28;1.60;;;;;;;;;;5092735;28;20051;-71
2022/06/07 01:02:05;;;;;;;2.13;1.92;;;;;;;;;;5092953;28;20097;-71
2022/06/07 01:04:31;;;;;;;2.70;1.90;;;;;;;;;;5093027;28;20086;-71
2022/06/07 01:12:28;;;;;;;2.88;1.50;;;;;;;;;;5092888;28;20079;-71
2022/06/07 01:14:55;;;;;;;2.22;1.70;;;;;;;;;;5092734;28;20098;-71
2022/06/07 01:17:21;;;;;;;2.80;1.50;;;;;;;;;;5092778;28;20091;-71
2022/06/07 01:19:47;;;;;;;2.30;1.70;;;;;;;;;;5092425;28;20084;-71
2022/06/07 01:22:15;;;;;;;5.65;1.95;;;;;;;;;;5092373;28;20072;-71
2022/06/07 01:24:41;;;;;;;2.38;2.17;;;;;;;;;;5092674;28;20181;-71
2022/06/07 01:27:08;;;;;;;3.47;1.48;;;;;;;;;;5092147;28;20079;-71
2022/06/07 01:29:35;;;;;;;2.35;1.85;;;;;;;;;;5092293;28;20086;-71
2022/06/07 01:32:01;;;;;;;3.17;1.67;;;;;;;;;;5092214;28;20095;-71
2022/06/07 01:34:28;;;;;;;2.63;1.85;;;;;;;;;;5092183;28;20420;-71
2022/06/07 01:36:55;;;;;;;1.55;1.45;;;;;;;;;;5092738;28;20192;-71
2022/06/07 01:42:10;;;;;;;3.35;1.58;;;;;;;;;;5092267;28;20048;-71
2022/06/07 01:44:44;;;;;;;3.08;1.67;;;;;;;;;;5091793;28;20084;-71
2022/06/07 01:47:11;;;;;;;2.70;2.17;;;;;;;;;;5090988;28;20052;-71
2022/06/07 01:49:38;;;;;;;7.40;2.00;;;;;;;;;;5092205;28;20459;-71
2022/06/07 01:52:06;;;;;;;2.80;1.92;;;;;;;;;;5092184;28;20047;-71
2022/06/07 01:54:32;;;;;;;2.30;1.60;;;;;;;;;;5092096;28;20056;-71
2022/06/07 01:56:59;;;;;;;1.70;1.60;;;;;;;;;;5091788;28;20527;-72
2022/06/07 01:59:26;;;;;;;3.25;1.90;;;;;;;;;;5092169;28;20052;-71
2022/06/07 02:01:52;;;;;;;2.17;1.60;;;;;;;;;;5091657;28;20491;-71
2022/06/07 02:04:21;;;;;;;4.25;2.03;;;;;;;;;;5091751;28;20503;-71
2022/06/07 02:06:48;;;;;;;1.85;1.75;;;;;;;;;;5090663;28;20534;-71
2022/06/07 02:09:14;;;;;;;2.33;1.50;;;;;;;;;;5091719;28;20526;-71
2022/06/07 02:11:41;;;;;;;3.28;1.80;;;;;;;;;;5091766;28;20079;-71
2022/06/07 02:14:08;;;;;;;2.72;2.17;;;;;;;;;;5090396;28;20134;-71
2022/06/07 02:16:35;;;;;;;2.00;1.60;;;;;;;;;;5091644;28;20067;-71
2022/06/07 02:19:02;;;;;;;4.97;1.90;;;;;;;;;;5091697;28;20487;-71
2022/06/07 02:21:29;;;;;;;3.03;1.70;;;;;;;;;;5092196;28;20091;-71
2022/06/07 02:23:56;;;;;;;1.85;1.60;;;;;;;;;;5091464;28;20123;-71
2022/06/07 02:26:24;;;;;;;2.58;1.60;;;;;;;;;;5091838;28;20091;-71
2022/06/07 02:29:09;;;;;;;1.70;1.60;;;;;;;;;;5091428;28;20129;-71
2022/06/07 02:31:37;;;;;;;1.63;1.50;;;;;;;;;;5092623;28;20105;-71
2022/06/07 02:34:03;;;;;;;;;;;;;;;;;;5094705;28;20484;-71
2022/06/07 02:36:31;;;;;;;2.80;1.48;;;;;;;;;;5095897;28;19965;-71
2022/06/07 02:38:58;;;;;;;1.80;1.35;;;;;;;;;;5095743;28;20079;-71
2022/06/07 02:41:26;;;;;;;3.67;1.90;;;;;;;;;;5095771;28;20567;-71
2022/06/07 02:43:53;;;;;;;3.35;1.90;;;;;;;;;;5095467;28;20448;-71
2022/06/07 02:46:19;;;;;;;1.73;1.48;;;;;;;;;;5095673;28;20967;-71
2022/06/07 02:48:46;;;;;;;3.60;1.40;;;;;;;;;;5095344;28;20046;-71
2022/06/07 02:51:13;;;;;;;1.73;1.63;;;;;;;;;;5095208;28;20087;-71
2022/06/07 02:53:39;;;;;;;2.83;1.92;;;;;;;;;;5095375;28;20117;-71
2022/06/07 02:56:06;;;;;;;4.38;1.80;;;;;;;;;;5095438;28;20055;-71
2022/06/07 02:58:32;;;;;;;2.10;1.90;;;;;;;;;;5095126;28;20503;-71
2022/06/07 03:00:59;;;;;;;1.85;1.50;;;;;;;;;;5095090;28;20048;-71
2022/06/07 03:03:26;;;;;;;2.10;1.90;;;;;;;;;;5094898;28;20526;-71
2022/06/07 03:05:53;;;;;;;3.63;1.60;;;;;;;;;;5095328;28;20048;-71
2022/06/07 03:08:20;;;;;;;3.17;1.88;;;;;;;;;;5093646;28;20052;-70
2022/06/07 03:10:47;;;;;;;1.80;1.70;;;;;;;;;;5095196;28;20082;-71
2022/06/07 03:13:14;;;;;;;1.70;1.57;;;;;;;;;;5094821;28;20067;-71
2022/06/07 03:15:41;;;;;;;2.47;1.73;;;;;;;;;;5094955;28;20338;-70
2022/06/07 03:18:08;;;;;;;3.90;2.10;;;;;;;;;;5095087;28;20091;-70
2022/06/07 03:20:35;;;;;;;2.15;1.77;;;;;;;;;;5094719;28;20476;-70
2022/06/07 03:23:02;;;;;;;2.80;2.10;;;;;;;;;;5088479;28;20076;-70
2022/06/07 03:25:28;;;;;;;2.08;1.58;;;;;;;;;;5094877;28;20079;-70
2022/06/07 03:27:54;;;;;;;3.90;1.80;;;;;;;;;;5094717;28;20075;-70
2022/06/07 03:30:21;;;;;;;1.90;1.80;;;;;;;;;;5094747;28;20469;-70
2022/06/07 03:32:47;;;;;;;1.70;1.60;;;;;;;;;;5094483;28;20496;-70
2022/06/07 03:35:15;;;;;;;2.58;1.77;;;;;;;;;;5094383;28;20091;-70
2022/06/07 03:37:41;;;;;;;4.20;1.90;;;;;;;;;;5094724;28;20080;-70
2022/06/07 03:40:09;;;;;;;3.45;2.10;;;;;;;;;;5094348;28;20094;-70
2022/06/07 03:42:35;;;;;;;5.50;2.58;;;;;;;;;;5094370;28;20044;-70
2022/06/07 03:45:02;;;;;;;3.28;1.83;;;;;;;;;;5094367;28;20091;-71
2022/06/07 03:47:29;;;;;;;2.00;1.80;;;;;;;;;;5094406;28;20082;-71
2022/06/07 03:49:55;;;;;;;2.35;1.85;;;;;;;;;;5094451;28;20040;-70
2022/06/07 03:52:21;;;;;;;2.40;1.85;;;;;;;;;;5094352;28;20044;-70
2022/06/07 03:54:49;;;;;;;2.35;1.50;;;;;;;;;;5094416;28;20044;-70
2022/06/07 03:57:16;;;;;;;1.88;1.77;;;;;;;;;;5093812;28;20105;-71
2022/06/07 03:59:43;;;;;;;6.37;2.00;;;;;;;;;;5094323;28;20115;-71
2022/06/07 04:02:10;;;;;;;2.33;2.03;;;;;;;;;;5093988;28;20048;-71
2022/06/07 04:04:37;;;;;;;1.63;1.52;;;;;;;;;;5092666;28;20367;-70
2022/06/07 04:09:50;;;;;;;2.70;1.83;;;;;;;;;;5094048;28;20101;-71
2022/06/07 04:12:16;;;;;;;;;;;;;;;;;;5094540;28;20400;-71
2022/06/07 04:14:44;;;;;;;4.53;1.90;;;;;;;;;;5093758;28;19967;-71
2022/06/07 04:17:11;;;;;;;3.95;1.92;;;;;;;;;;5094044;28;20048;-71
2022/06/07 04:19:40;;;;;;;3.08;1.80;;;;;;;;;;5093615;28;20475;-71
2022/06/07 04:22:06;;;;;;;4.57;2.08;;;;;;;;;;5093508;28;20098;-71
2022/06/07 04:24:33;;;;;;;5.25;2.30;;;;;;;;;;5093688;28;20087;-71
2022/06/07 04:27:00;;;;;;;5.03;2.42;;;;;;;;;;5093687;28;20127;-70
2022/06/07 04:29:27;;;;;;;2.83;2.40;;;;;;;;;;5093762;28;20059;-71
2022/06/07 04:31:53;;;;;;;7.30;2.92;;;;;;;;;;5093526;28;20483;-71
2022/06/07 04:34:20;;;;;;;2.65;2.30;;;;;;;;;;5093850;28;20048;-71
2022/06/07 04:36:47;;;;;;;2.60;2.40;;;;;;;;;;5093440;28;20044;-70
2022/06/07 04:39:13;;;;;;;2.42;2.10;;;;;;;;;;5093561;28;20457;-71
2022/06/07 04:41:40;;;;;;;2.78;2.17;;;;;;;;;;5092485;28;20105;-71
2022/06/07 04:44:06;;;;;;;2.30;2.10;;;;;;;;;;5073110;28;20132;-71
2022/06/07 04:46:33;;;;;;;3.17;1.88;;;;;;;;;;5072874;28;20080;-71
2022/06/07 04:49:00;;;;;;;4.30;2.37;;;;;;;;;;5090835;28;20488;-71
2022/06/07 04:51:31;;;;;;;3.08;2.30;;;;;;;;;;5092936;28;20083;-71
2022/06/07 04:53:58;;;;;;;3.40;2.35;;;;;;;;;;5092840;28;20086;-71
2022/06/07 04:56:26;;;;;;;2.75;2.45;;;;;;;;;;5093027;28;20084;-71
2022/06/07 04:58:53;;;;;;;3.63;2.08;;;;;;;;;;5092778;28;20085;-71
2022/06/07 05:01:22;;;;;;;8.82;2.63;;;;;;;;;;5093130;28;20089;-71
2022/06/07 05:03:49;;;;;;;2.78;2.33;;;;;;;;;;5092578;28;20052;-71
2022/06/07 05:06:17;;;;;;;3.25;2.20;;;;;;;;;;5093008;28;20090;-71
2022/06/07 05:08:43;;;;;;;3.08;2.40;;;;;;;;;;5092638;28;20527;-71
2022/06/07 05:11:10;;;;;;;4.93;2.50;;;;;;;;;;5092563;28;20460;-71
2022/06/07 05:13:36;;;;;;;3.03;2.58;;;;;;;;;;5092848;28;20056;-71
2022/06/07 05:16:03;;;;;;;3.47;2.78;;;;;;;;;;5092526;28;20067;-71
2022/06/07 05:18:30;;;;;;;2.50;2.30;;;;;;;;;;5092526;28;20607;-71
2022/06/07 05:20:56;;;;;;;3.08;2.50;;;;;;;;;;5092357;28;20143;-71
2022/06/07 05:23:23;;;;;;;3.63;2.80;;;;;;;;;;5092598;28;20094;-71
2022/06/07 05:26:01;;;;;;;3.75;2.60;;;;;;;;;;5091286;28;20072;-71
2022/06/07 05:28:28;;;;;;;3.95;2.85;;;;;;;;;;5092550;28;20082;-71
2022/06/07 05:30:54;;;;;;;5.43;3.30;;;;;;;;;;5092187;28;20056;-71
2022/06/07 05:33:20;;;;;;;6.47;2.80;;;;;;;;;;5092449;28;20097;-71
2022/06/07 05:35:47;;;;;;;4.28;2.90;;;;;;;;;;5092362;28;20080;-71
2022/06/07 05:38:14;;;;;;;7.03;3.95;;;;;;;;;;5092206;28;20080;-71
2022/06/07 05:40:41;;;;;;;4.45;3.58;;;;;;;;;;5092287;28;20397;-71
2022/06/07 05:43:08;;;;;;;3.97;3.50;;;;;;;;;;5090804;28;20407;-71
2022/06/07 05:45:34;;;;;;;6.55;3.90;;;;;;;;;;5091796;28;20048;-71
2022/06/07 05:48:01;;;;;;;5.10;3.15;;;;;;;;;;5092345;28;20070;-71
2022/06/07 05:50:28;;;;;;;4.70;3.47;;;;;;;;;;5092145;28;20097;-71
2022/06/07 05:52:54;;;;;;;5.43;3.72;;;;;;;;;;5092022;28;20075;-71
2022/06/07 05:55:21;;;;;;;4.43;3.17;;;;;;;;;;5091778;28;20507;-71
2022/06/07 05:57:51;;;;;;;3.20;2.85;;;;;;;;;;5091899;28;20068;-71
2022/06/07 06:00:17;;;;;;;3.72;2.95;;;;;;;;;;5092357;28;20063;-70
2022/06/07 06:02:44;;;;;;;3.70;3.00;;;;;;;;;;5091956;28;20092;-70
2022/06/07 06:05:10;;;;;;;3.85;2.90;;;;;;;;;;5091928;28;20059;-71
2022/06/07 06:10:19;;;;;;;4.13;3.28;;;;;;;;;;5091121;28;20098;-71
2022/06/07 06:10:23;;;;;;;6.05;3.38;;;;;;;;;;5091815;28;20306;-71
2022/06/07 06:12:50;;;;;;;3.58;3.25;;;;;;;;;;5091616;28;20079;-71
2022/06/07 06:15:17;;;;;;;6.78;3.65;;;;;;;;;;5091634;28;20495;-71
2022/06/07 06:17:43;;;;;;;3.77;3.37;;;;;;;;;;5091659;28;20079;-74
2022/06/07 06:20:10;;;;;;;3.33;3.03;;;;;;;;;;5091514;28;20331;-69
2022/06/07 06:22:37;;;;;;;7.70;3.67;;;;;;;;;;5091183;28;20451;-69
2022/06/07 06:25:04;;;;;;;3.00;2.67;;;;;;;;;;5091077;28;20076;-70
2022/06/07 06:27:32;;;;;;;3.45;3.15;;;;;;;;;;5091162;28;20308;-68
2022/06/07 06:29:58;;;;;;;3.88;3.10;;;;;;;;;;5085126;28;20044;-72
2022/06/07 06:32:25;;;;;;;3.28;2.97;;;;;;;;;;5089646;28;20071;-72
2022/06/07 06:34:52;;;;;;;6.00;3.20;;;;;;;;;;5089939;28;20079;-72
2022/06/07 06:37:18;;;;;;;4.65;3.15;;;;;;;;;;5091372;28;20080;-72
2022/06/07 06:39:45;;;;;;;2.95;2.75;;;;;;;;;;5090784;28;20072;-71
2022/06/07 06:42:11;;;;;;;4.70;2.83;;;;;;;;;;5091405;28;20488;-72
2022/06/07 06:44:48;;;;;;;4.13;2.70;;;;;;;;;;5090746;28;20071;-72
2022/06/07 06:47:14;;;;;;;3.35;2.70;;;;;;;;;;5090723;28;20500;-70
2022/06/07 06:49:41;;;;;;;4.85;2.65;;;;;;;;;;5091237;28;20090;-70
2022/06/07 06:52:09;;;;;;;3.30;2.53;;;;;;;;;;5091278;28;20044;-71
2022/06/07 06:54:37;;;;;;;5.63;3.15;;;;;;;;;;5091494;28;20117;-70
2022/06/07 06:57:04;;;;;;;3.65;2.40;;;;;;;;;;5090661;28;20501;-68
2022/06/07 06:59:31;;;;;;;2.63;2.22;;;;;;;;;;5090612;28;20557;-68
2022/06/07 07:01:58;;;;;;;2.43;2.00;;;;;;;;;;5091568;28;20068;-67
2022/06/07 07:04:24;;;;;;;4.18;1.67;;;;;;;;;;5091131;28;20079;-67
2022/06/07 07:06:51;;;;;;;2.05;1.75;;;;;;;;;;5091172;28;20044;-68
2022/06/07 07:09:18;;;;;;;1.90;1.40;;;;;;;;;;5091138;28;20075;-70
2022/06/07 07:11:47;;;;;;;2.50;1.75;;;;;;;;;;5091049;28;20083;-70
2022/06/07 07:14:13;;;;;;;2.25;1.65;;;;;;;;;;5091073;28;20559;-70
2022/06/07 07:16:41;;;;;;;2.95;1.85;;;;;;;;;;5090580;28;20491;-68
2022/06/07 07:19:08;;;;;;;3.00;2.30;;;;;;;;;;5092402;28;20078;-68
2022/06/07 07:21:36;;;;;;;3.10;1.80;;;;;;;;;;5094501;28;20181;-70
2022/06/07 07:24:04;;;;;;;3.10;1.92;;;;;;;;;;5094852;28;20079;-70
2022/06/07 07:26:31;;;;;;;2.80;1.70;;;;;;;;;;5095134;28;20075;-68
2022/06/07 07:28:58;;;;;;;2.05;1.00;;;;;;;;;;5094724;28;20044;-69
2022/06/07 07:31:31;;;;;;;3.80;1.70;;;;;;;;;;5094523;28;20127;-72
2022/06/07 07:33:58;;;;;;;0.80;0.80;;;;;;;;;;5094805;28;20051;-70
2022/06/07 07:36:26;;;;;;;3.00;1.50;;;;;;;;;;5094523;28;20510;-71
2022/06/07 07:38:52;;;;;;;;;;;;;;;;;;5094615;28;20048;-71
2022/06/07 07:41:21;;;;;;;1.35;1.00;;;;;;;;;;5089847;28;19920;-69
2022/06/07 07:43:48;;;;;;;1.77;1.10;;;;;;;;;;5093937;28;20080;-71
2022/06/07 07:46:16;;;;;;;4.68;1.70;;;;;;;;;;5094048;28;20044;-71
2022/06/07 07:48:42;;;;;;;;;;;;;;;;;;5093392;28;20513;-71
2022/06/07 07:51:12;;;;;;;2.78;1.20;;;;;;;;;;5093743;28;19931;-71
2022/06/07 07:53:39;;;;;;;2.25;1.02;;;;;;;;;;5094038;28;20459;-71
2022/06/07 07:56:07;;;;;;;1.33;1.05;;;;;;;;;;5094340;28;20079;-71
2022/06/07 07:58:34;;;;;;;2.53;1.00;;;;;;;;;;5094063;28;20577;-71
2022/06/07 08:01:06;;;;;;;2.75;1.40;;;;;;;;;;5094009;28;20526;-71
2022/06/07 08:03:32;;;;;;;2.75;1.40;;;;;;;;;;5094361;28;20076;-71
2022/06/07 08:06:17;;;;;;;3.20;1.80;;;;;;;;;;5093911;28;20492;-71
2022/06/07 08:08:46;;;;;;;1.75;1.42;;;;;;;;;;5093890;28;20044;-70
2022/06/07 08:11:14;;;;;;;1.60;0.90;;;;;;;;;;5083092;28;20045;-69
2022/06/07 08:13:42;;;;;;;1.52;1.20;;;;;;;;;;5076887;28;20083;-69
2022/06/07 08:16:09;;;;;;;2.90;1.20;;;;;;;;;;5075471;28;20131;-69
2022/06/07 08:18:36;;;;;;;1.38;1.10;;;;;;;;;;5074222;28;20067;-69
2022/06/07 08:21:05;;;;;;;1.80;0.95;;;;;;;;;;5059576;28;20081;-69
2022/06/07 08:23:32;;;;;;;2.03;1.02;;;;;;;;;;5081310;28;20461;-69
2022/06/07 08:25:58;;;;;;;;;;;;;;;;;;5093542;28;20466;-69
2022/06/07 08:28:25;;;;;;;1.35;0.88;;;;;;;;;;5092889;28;19923;-69
2022/06/07 08:30:52;;;;;;;1.00;0.85;;;;;;;;;;5072691;28;20098;-70
2022/06/07 08:38:57;;;;;;;1.30;0.60;;;;;;;;;;5079952;28;20075;-70
2022/06/07 08:41:26;;;;;;;1.00;0.40;;;;;;;;;;5093009;28;20114;-70
2022/06/07 08:43:54;;;;;;;2.58;0.60;;;;;;;;;;5090089;28;20503;-70
2022/06/07 08:46:26;;;;;;;0.75;0.40;;;;;;;;;;5079812;28;20044;-69
2022/06/07 08:48:53;;;;;;;0.60;0.30;;;;;;;;;;5092768;28;20048;-69
2022/06/07 08:51:30;;;;;;;1.13;0.28;;;;;;;;;;5092714;28;20080;-69
2022/06/07 08:53:58;;;;;;;1.17;0.60;;;;;;;;;;5092935;28;20102;-69
2022/06/07 08:56:26;;;;;;;1.13;0.70;;;;;;;;;;5092940;28;20075;-69
2022/06/07 08:58:54;;;;;;;1.38;0.50;;;;;;;;;;5092915;28;20091;-69
2022/06/07 09:01:30;;;;;;;0.80;0.80;;;;;;;;;;5086344;28;20102;-69
2022/06/07 09:03:56;;;;;;;1.70;0.50;;;;;;;;;;5070763;28;20123;-69
2022/06/07 09:06:24;;;;;;;0.90;0.50;;;;;;;;;;5090750;28;20048;-68
2022/06/07 09:08:55;;;;;;;1.42;0.52;;;;;;;;;;5092186;28;20048;-69
2022/06/07 09:14:09;;;;;;;0.20;0.20;;;;;;;;;;5091240;28;20048;-69
2022/06/07 09:16:38;;;;;;;0.30;0.22;;;;;;;;;;5091666;28;20502;-69
2022/06/07 09:19:08;;;;;;;0.40;0.40;;;;;;;;;;5092810;28;20082;-69
2022/06/07 09:21:37;;;;;;;0.50;0.30;;;;;;;;;;5092463;28;20079;-69
2022/06/07 09:24:08;;;;;;;1.52;0.60;;;;;;;;;;5092009;28;20044;-69
2022/06/07 09:26:37;;;;;;;0.70;0.50;;;;;;;;;;5092730;28;20040;-69
2022/06/07 09:29:03;;;;;;;0.38;0.30;;;;;;;;;;5092547;28;20548;-69
2022/06/07 09:31:30;;;;;;;0.40;0.30;;;;;;;;;;5089854;28;20082;-69
2022/06/07 09:34:02;;;;;;;1.10;0.50;;;;;;;;;;5092151;28;20555;-69
2022/06/07 09:36:30;;;;;;;0.77;0.38;;;;;;;;;;5091995;28;20044;-70
2022/06/07 09:39:00;;;;;;;0.90;0.10;;;;;;;;;;5092305;28;20369;-70
2022/06/07 09:41:38;;;;;;;2.17;0.60;;;;;;;;;;5091861;28;20076;-70
2022/06/07 09:44:40;;;;;;;1.17;0.60;;;;;;;;;;5091742;28;20143;-70
2022/06/07 09:47:14;;;;;;;0.55;0.20;;;;;;;;;;5088561;28;20569;-69
2022/06/07 09:49:48;;;;;;;0.47;0.30;;;;;;;;;;5091768;28;20083;-70
2022/06/07 09:52:20;;;;;;;0.15;0.15;;;;;;;;;;5090867;28;20048;-70
2022/06/07 09:54:49;;;;;;;0.70;0.20;;;;;;;;;;5091297;28;20117;-70
2022/06/07 09:57:34;;;;;;;0.93;0.28;;;;;;;;;;5091765;28;20044;-70
2022/06/07 10:00:05;;;;;;;0.68;0.40;;;;;;;;;;5064129;28;20070;-69
2022/06/07 10:02:46;;;;;;;1.23;0.25;;;;;;;;;;5091259;28;20548;-70
2022/06/07 10:05:21;;;;;;;0.30;0.20;;;;;;;;;;5091220;28;20518;-71
2022/06/07 10:07:48;;;;;;;0.75;0.40;;;;;;;;;;5090574;28;20071;-71
2022/06/07 10:10:25;;;;;;;0.98;0.68;;;;;;;;;;5091074;28;20180;-70
2022/06/07 10:13:04;;;;;;;2.10;0.70;;;;;;;;;;5062462;28;20036;-70
2022/06/07 10:15:47;;;;;;;0.75;0.55;;;;;;;;;;5069009;28;20416;-70
2022/06/07 10:18:16;;;;;;;0.52;0.52;;;;;;;;;;5092010;28;20139;-69
2022/06/07 10:21:04;;;;;;;0.75;0.52;;;;;;;;;;5091849;28;20093;-69
2022/06/07 10:23:49;;;;;;;2.03;0.32;;;;;;;;;;5090926;28;20060;-69
2022/06/07 10:26:45;;;;;;;0.20;0.20;;;;;;;;;;5091832;28;20076;-69
2022/06/07 10:29:23;;;;;;;3.13;0.60;;;;;;;;;;5091121;28;20067;-69
2022/06/07 10:31:50;;;;;;;0.77;0.60;;;;;;;;;;5091799;28;20036;-68
2022/06/07 10:34:31;;;;;;;0.55;0.50;;;;;;;;;;5091777;28;20060;-69
2022/06/07 10:36:58;;;;;;;1.70;0.80;;;;;;;;;;5091412;28;20071;-68
2022/06/07 10:39:57;;;;;;;0.77;0.60;;;;;;;;;;5090514;28;20083;-69
2022/06/07 10:42:23;;;;;;;0.40;0.40;;;;;;;;;;5090221;28;20131;-69
2022/06/07 10:44:55;;;;;;;0.83;0.40;;;;;;;;;;5091418;28;20048;-68
2022/06/07 10:47:33;;;;;;;0.60;0.50;;;;;;;;;;5091411;28;20304;-69
2022/06/07 10:50:06;;;;;;;0.40;0.40;;;;;;;;;;5091501;28;20074;-70
2022/06/07 10:52:41;;;;;;;0.30;0.30;;;;;;;;;;5092068;28;20043;-70
2022/06/07 10:55:07;;;;;;;1.33;0.22;;;;;;;;;;5095261;28;20052;-69
2022/06/07 10:57:41;;;;;;;0.82;0.40;;;;;;;;;;5094020;28;20056;-69
2022/06/07 11:00:29;;;;;;;0.40;0.20;;;;;;;;;;5094559;28;20094;-69
2022/06/07 11:03:18;;;;;;;0.50;0.20;;;;;;;;;;5072808;28;20108;-69
2022/06/07 11:11:29;;;;;;;0.88;0.47;;;;;;;;;;5094938;28;20048;-68
2022/06/07 11:13:56;;;;;;;0.80;0.40;;;;;;;;;;5093611;28;20302;-69
2022/06/07 11:16:27;;;;;;;1.08;0.35;;;;;;;;;;5095323;28;20508;-69
2022/06/07 11:18:54;;;;;;;0.52;0.52;;;;;;;;;;5094950;28;20083;-69
2022/06/07 11:21:29;;;;;;;0.73;0.40;;;;;;;;;;5095088;28;20083;-69
2022/06/07 11:23:57;;;;;;;1.75;0.30;;;;;;;;;;5095048;28;20048;-69
2022/06/07 11:26:39;;;;;;;1.98;0.30;;;;;;;;;;5094651;28;20044;-69
2022/06/07 11:29:09;;;;;;;0.45;0.20;;;;;;;;;;5094086;28;20080;-69
2022/06/07 11:31:35;;;;;;;0.80;0.32;;;;;;;;;;5094258;28;20097;-70
2022/06/07 11:34:13;;;;;;;0.40;0.40;;;;;;;;;;5094524;28;20131;-69
2022/06/07 11:36:42;;;;;;;1.65;0.20;;;;;;;;;;5084192;28;20493;-66
2022/06/07 11:39:09;;;;;;;0.63;0.20;;;;;;;;;;5081769;28;20087;-66
2022/06/07 11:41:44;;;;;;;0.35;0.30;;;;;;;;;;5073891;28;20056;-65
2022/06/07 11:44:10;;;;;;;1.52;0.40;;;;;;;;;;5073450;28;20114;-66
2022/06/07 11:46:38;;;;;;;0.57;0.32;;;;;;;;;;5073886;28;20048;-67
2022/06/07 11:49:27;;;;;;;3.58;0.40;;;;;;;;;;5073966;28;20131;-62
2022/06/07 11:51:55;;;;;;;1.00;0.50;;;;;;;;;;5072280;28;20049;-60
2022/06/07 11:54:26;;;;;;;0.60;0.30;;;;;;;;;;5073579;28;20080;-60
2022/06/07 11:56:56;;;;;;;0.30;0.22;;;;;;;;;;5072856;28;20091;-61
2022/06/07 11:59:22;;;;;;;4.70;0.60;;;;;;;;;;5073608;28;20090;-60
2022/06/07 12:02:08;;;;;;;0.88;0.30;;;;;;;;;;5072371;28;20095;-61
2022/06/07 12:04:36;;;;;;;0.32;0.32;;;;;;;;;;5070240;28;20524;-60
2022/06/07 12:07:10;;;;;;;2.20;0.50;;;;;;;;;;5073301;28;20059;-60
2022/06/07 12:09:38;;;;;;;1.48;0.40;;;;;;;;;;5073363;28;20045;-60
2022/06/07 12:12:17;;;;;;;1.38;0.77;;;;;;;;;;5068061;28;20075;-61
2022/06/07 12:14:45;;;;;;;3.10;0.45;;;;;;;;;;5090953;28;20696;-61
2022/06/07 12:17:38;;;;;;;1.33;0.60;;;;;;;;;;5093021;28;20478;-61
2022/06/07 12:20:06;;;;;;;0.45;0.40;;;;;;;;;;5092864;28;20048;-61
2022/06/07 12:22:40;;;;;;;0.57;0.30;;;;;;;;;;5093416;28;20084;-61
2022/06/07 12:25:17;;;;;;;0.20;0.15;;;;;;;;;;5093250;28;20076;-61
2022/06/07 12:27:46;;;;;;;0.30;0.20;;;;;;;;;;5093305;28;20044;-61
2022/06/07 12:30:27;;;;;;;0.75;0.30;;;;;;;;;;5061445;28;20123;-61
2022/06/07 12:32:55;;;;;;;0.65;0.40;;;;;;;;;;5079171;28;20048;-61
2022/06/07 12:35:26;;;;;;;1.00;0.30;;;;;;;;;;5076368;28;20072;-60
2022/06/07 12:37:54;;;;;;;0.35;0.30;;;;;;;;;;5074000;28;20455;-61
2022/06/07 12:40:23;;;;;;;0.30;0.30;;;;;;;;;;5086024;28;20084;-69
2022/06/07 12:42:50;;;;;;;1.02;0.40;;;;;;;;;;5082194;28;20450;-69
2022/06/07 12:45:32;;;;;;;0.70;0.70;;;;;;;;;;5092641;28;20571;-69
2022/06/07 12:48:00;;;;;;;0.88;0.43;;;;;;;;;;5092921;28;20048;-69
2022/06/07 12:50:29;;;;;;;0.55;0.55;;;;;;;;;;5092710;28;20044;-69
2022/06/07 12:52:56;;;;;;;0.50;0.50;;;;;;;;;;5083558;28;20371;-68
2022/06/07 12:55:24;;;;;;;0.52;0.45;;;;;;;;;;5071316;28;20088;-68
2022/06/07 12:57:53;;;;;;;0.50;0.50;;;;;;;;;;5092739;28;20044;-68
2022/06/07 13:00:23;;;;;;;1.20;0.73;;;;;;;;;;5091119;28;20052;-68
2022/06/07 13:02:53;;;;;;;1.13;1.02;;;;;;;;;;5091475;28;20071;-67
2022/06/07 13:05:23;;;;;;;0.70;0.52;;;;;;;;;;5093017;28;20097;-68
2022/06/07 13:07:51;;;;;;;1.20;0.80;;;;;;;;;;5093188;28;20079;-67
2022/06/07 13:10:19;;;;;;;0.80;0.80;;;;;;;;;;5092679;28;20047;-67
2022/06/07 13:12:48;;;;;;;1.05;0.98;;;;;;;;;;5092777;28;20131;-67
2022/06/07 13:15:37;;;;;;;1.30;1.20;;;;;;;;;;5092403;28;20113;-68
2022/06/07 13:18:06;;;;;;;1.02;1.00;;;;;;;;;;5092647;28;20055;-67
2022/06/07 13:20:38;;;;;;;1.65;1.20;;;;;;;;;;5092640;28;20101;-68
2022/06/07 13:23:25;;;;;;;1.30;1.20;;;;;;;;;;5092523;28;20088;-68
2022/06/07 13:25:54;;;;;;;1.60;1.50;;;;;;;;;;5092386;28;20048;-68
2022/06/07 13:28:23;;;;;;;1.52;1.40;;;;;;;;;;5092521;28;20052;-68
2022/06/07 13:30:53;;;;;;;1.45;1.35;;;;;;;;;;5092306;28;20552;-68
2022/06/07 13:33:23;;;;;;;1.45;1.00;;;;;;;;;;5092417;28;20154;-68
2022/06/07 13:35:57;;;;;;;1.30;1.20;;;;;;;;;;5092219;28;20048;-68
2022/06/07 13:38:25;;;;;;;1.08;0.90;;;;;;;;;;5092126;28;20087;-68
2022/06/07 13:41:00;;;;;;;1.17;1.10;;;;;;;;;;5092109;28;20467;-68
2022/06/07 13:43:27;;;;;;;1.75;1.00;;;;;;;;;;5092229;28;20056;-68
2022/06/07 13:45:53;;;;;;;1.52;1.20;;;;;;;;;;5092163;28;20079;-68
2022/06/07 13:48:21;;;;;;;1.40;1.25;;;;;;;;;;5092011;28;20450;-68
2022/06/07 13:53:45;;;;;;;2.15;1.30;;;;;;;;;;5091422;28;20055;-68
2022/06/07 13:56:17;;;;;;;1.25;1.15;;;;;;;;;;5092150;28;20062;-69
2022/06/07 13:58:52;;;;;;;2.42;1.30;;;;;;;;;;5092168;28;20052;-69
2022/06/07 14:01:26;;;;;;;2.22;0.93;;;;;;;;;;5092091;28;20389;-69
2022/06/07 14:03:53;;;;;;;0.70;0.70;;;;;;;;;;5091748;28;20511;-69
2022/06/07 14:06:22;;;;;;;0.50;0.50;;;;;;;;;;5091312;28;20040;-69
2022/06/07 14:08:49;;;;;;;0.65;0.65;;;;;;;;;;5090077;28;20454;-69
2022/06/07 14:11:15;;;;;;;;;;;;;;;;;;5090177;28;20044;-70
2022/06/07 14:13:42;;;;;;;2.50;1.40;;;;;;;;;;5091477;28;20359;-69
2022/06/07 14:16:13;;;;;;;2.28;1.40;;;;;;;;;;5092052;28;20079;-69
2022/06/07 14:18:42;;;;;;;2.13;1.40;;;;;;;;;;5091780;28;20052;-69
2022/06/07 14:21:09;;;;;;;1.20;1.10;;;;;;;;;;5091794;28;20054;-69
2022/06/07 14:23:35;;;;;;;1.95;1.23;;;;;;;;;;5072405;28;20057;-70
2022/06/07 14:26:02;;;;;;;0.60;0.60;;;;;;;;;;5086951;28;20151;-70
2022/06/07 14:28:29;;;;;;;1.80;0.47;;;;;;;;;;5091083;28;20090;-70
2022/06/07 14:30:56;;;;;;;0.40;0.40;;;;;;;;;;5088710;28;20087;-70
2022/06/07 14:33:23;;;;;;;0.77;0.77;;;;;;;;;;5095505;28;20044;-70
2022/06/07 14:35:50;;;;;;;0.40;0.40;;;;;;;;;;5095208;28;20106;-70
2022/06/07 14:38:19;;;;;;;0.30;0.30;;;;;;;;;;5095026;28;20127;-70
2022/06/07 14:40:46;;;;;;;0.20;0.20;;;;;;;;;;5095222;28;20056;-69
2022/06/07 14:43:12;;;;;;;;;;;;;;;;;;5095754;28;20079;-68
2022/06/07 14:45:50;;;;;;;0.65;0.20;;;;;;;;;;5092771;28;19920;-68
2022/06/07 14:48:25;;;;;;;0.30;0.30;;;;;;;;;;5095197;28;20131;-68
2022/06/07 14:50:52;;;;;;;0.47;0.30;;;;;;;;;;5094879;28;20090;-69
2022/06/07 14:53:18;;;;;;;0.80;0.38;;;;;;;;;;5094726;28;20181;-68
2022/06/07 14:55:45;;;;;;;0.93;0.50;;;;;;;;;;5095038;28;20048;-69
2022/06/07 14:58:11;;;;;;;1.80;0.50;;;;;;;;;;5094753;28;20052;-69
2022/06/07 15:00:38;;;;;;;0.87;0.40;;;;;;;;;;5094827;28;20072;-70
2022/06/07 15:03:05;;;;;;;;;;;;;;;;;;5095088;28;20338;-69
2022/06/07 15:05:32;;;;;;;0.82;0.38;;;;;;;;;;5093516;28;19920;-69
2022/06/07 15:08:01;;;;;;;1.65;0.40;;;;;;;;;;5094477;28;20048;-70
2022/06/07 15:10:29;;;;;;;0.47;0.22;;;;;;;;;;5094701;28;20052;-70
2022/06/07 15:12:56;;;;;;;0.75;0.38;;;;;;;;;;5094567;28;20052;-70
2022/06/07 15:15:23;;;;;;;1.73;0.65;;;;;;;;;;5094202;28;20044;-70
2022/06/07 15:17:54;;;;;;;2.13;0.40;;;;;;;;;;5094336;28;20483;-69
2022/06/07 15:20:29;;;;;;;0.90;0.45;;;;;;;;;;5093267;28;20081;-70
2022/06/07 15:22:56;;;;;;;1.05;0.30;;;;;;;;;;5093009;28;20495;-69
2022/06/07 15:25:25;;;;;;;1.10;0.50;;;;;;;;;;5094104;28;20512;-69